createdAt,value
2023-04-04T00:01:42.997Z,2.35
2023-04-04T00:04:09.435Z,2.47
2023-04-04T00:06:36.553Z,3.05
2023-04-04T00:09:02.975Z,2.50
2023-04-04T00:11:29.390Z,2.42
2023-04-04T00:13:55.860Z,2.40
2023-04-04T00:16:22.369Z,2.63
2023-04-04T00:18:48.892Z,2.30
2023-04-04T00:21:15.357Z,2.30
2023-04-04T00:23:41.736Z,3.13
2023-04-04T00:26:08.119Z,2.40
2023-04-04T00:28:34.552Z,2.28
2023-04-04T00:31:01.482Z,1.60
2023-04-04T00:33:27.912Z,3.00
2023-04-04T00:35:54.748Z,2.35
2023-04-04T00:38:21.208Z,3.00
2023-04-04T00:40:50.409Z,2.58
2023-04-04T00:43:18.381Z,3.17
2023-04-04T00:45:45.013Z,2.80
2023-04-04T00:48:12.024Z,2.60
2023-04-04T00:50:38.687Z,1.70
2023-04-04T00:53:05.468Z,2.42
2023-04-04T00:55:32.513Z,1.70
2023-04-04T00:58:00.224Z,2.88
2023-04-04T01:00:27.476Z,1.55
2023-04-04T01:02:53.967Z,2.67
2023-04-04T01:05:20.506Z,3.08
2023-04-04T01:07:47.015Z,2.20
2023-04-04T01:10:13.458Z,2.10
2023-04-04T01:12:41.568Z,2.53
2023-04-04T01:15:08.620Z,2.58
2023-04-04T01:17:35.789Z,2.97
2023-04-04T01:20:17.237Z,2.30
2023-04-04T01:22:46.200Z,2.28
2023-04-04T01:25:14.484Z,1.73
2023-04-04T01:27:41.423Z,2.15
2023-04-04T01:30:08.971Z,3.22
2023-04-04T01:32:45.871Z,2.28
2023-04-04T01:35:27.385Z,2.78
2023-04-04T01:40:35.008Z,1.98
2023-04-04T01:43:01.853Z,2.60
2023-04-04T01:45:29.604Z,2.30
2023-04-04T01:47:57.066Z,2.10
2023-04-04T01:50:23.660Z,2.33
2023-04-04T01:52:50.139Z,3.22
2023-04-04T01:55:16.614Z,2.22
2023-04-04T01:57:43.095Z,2.20
2023-04-04T02:00:10.954Z,2.75
2023-04-04T02:02:37.408Z,3.05
2023-04-04T02:05:04.186Z,4.50
2023-04-04T02:07:30.591Z,2.75
2023-04-04T02:09:57.871Z,2.63
2023-04-04T02:12:24.271Z,3.45
2023-04-04T02:14:50.773Z,2.75
2023-04-04T02:17:17.149Z,2.50
2023-04-04T02:19:43.730Z,2.20
2023-04-04T02:22:10.325Z,2.17
2023-04-04T02:24:36.702Z,3.55
2023-04-04T02:27:04.451Z,2.03
2023-04-04T02:29:31.065Z,2.67
2023-04-04T02:31:57.485Z,2.08
2023-04-04T02:34:23.957Z,2.55
2023-04-04T02:36:50.547Z,2.55
2023-04-04T02:39:16.926Z,2.40
2023-04-04T02:41:43.337Z,2.90
2023-04-04T02:44:10.142Z,2.45
2023-04-04T02:46:36.763Z,2.63
2023-04-04T02:49:03.699Z,2.88
2023-04-04T02:51:30.152Z,3.55
2023-04-04T02:53:56.583Z,2.75
2023-04-04T02:56:23.058Z,3.20
2023-04-04T02:58:49.449Z,2.60
2023-04-04T03:01:16.167Z,3.60
2023-04-04T03:03:42.743Z,2.90
2023-04-04T03:06:09.167Z,3.45
2023-04-04T03:08:38.389Z,3.47
2023-04-04T03:11:04.875Z,2.70
2023-04-04T03:13:31.393Z,3.55
2023-04-04T03:16:00.054Z,3.40
2023-04-04T03:18:26.675Z,2.95
2023-04-04T03:20:53.054Z,3.15
2023-04-04T03:23:19.429Z,2.80
2023-04-04T03:25:46.375Z,2.70
2023-04-04T03:28:13.526Z,2.83
2023-04-04T03:30:40.068Z,3.25
2023-04-04T03:33:09.936Z,4.00
2023-04-04T03:35:40.557Z,3.63
2023-04-04T03:38:07.909Z,2.67
2023-04-04T03:40:34.390Z,3.70
2023-04-04T03:43:02.375Z,2.90
2023-04-04T03:45:30.260Z,3.47
2023-04-04T03:47:56.695Z,3.17
2023-04-04T03:50:23.182Z,2.78
2023-04-04T03:52:49.629Z,2.70
2023-04-04T03:55:16.246Z,3.30
2023-04-04T03:57:42.789Z,4.68
2023-04-04T04:00:09.802Z,3.50
2023-04-04T04:02:36.373Z,3.08
2023-04-04T04:05:03.723Z,3.17
2023-04-04T04:07:30.144Z,3.55
2023-04-04T04:09:56.977Z,2.97
2023-04-04T04:12:23.677Z,3.55
2023-04-04T04:14:50.113Z,4.03
2023-04-04T04:17:16.502Z,3.25
2023-04-04T04:19:42.920Z,3.10
2023-04-04T04:22:10.241Z,2.92
2023-04-04T04:24:36.697Z,3.40
2023-04-04T04:27:03.078Z,2.75
2023-04-04T04:29:30.256Z,5.22
2023-04-04T04:31:57.779Z,3.78
2023-04-04T04:34:24.453Z,4.57
2023-04-04T04:36:50.850Z,4.13
2023-04-04T04:39:17.250Z,2.75
2023-04-04T04:41:43.658Z,3.50
2023-04-04T04:44:10.093Z,2.70
2023-04-04T04:46:36.635Z,3.90
2023-04-04T04:49:03.480Z,3.65
2023-04-04T04:51:29.966Z,4.40
2023-04-04T04:53:56.452Z,4.93
2023-04-04T04:56:22.891Z,3.30
2023-04-04T04:58:50.990Z,2.95
2023-04-04T05:01:17.666Z,3.88
2023-04-04T05:03:44.132Z,3.50
2023-04-04T05:06:10.648Z,3.95
2023-04-04T05:08:37.186Z,3.38
2023-04-04T05:11:05.311Z,3.28
2023-04-04T05:13:32.181Z,3.67
2023-04-04T05:15:58.576Z,4.03
2023-04-04T05:18:26.422Z,5.55
2023-04-04T05:20:54.675Z,3.13
2023-04-04T05:23:21.681Z,3.65
2023-04-04T05:25:53.306Z,3.03
2023-04-04T05:28:20.807Z,4.25
2023-04-04T05:30:47.521Z,4.35
2023-04-04T05:33:13.954Z,3.78
2023-04-04T05:35:41.279Z,3.95
2023-04-04T05:38:07.858Z,3.85
2023-04-04T05:40:34.289Z,3.17
2023-04-04T05:43:04.160Z,5.50
2023-04-04T05:45:31.689Z,4.82
2023-04-04T05:47:58.268Z,5.10
2023-04-04T05:50:24.778Z,4.40
2023-04-04T05:52:53.968Z,5.43
2023-04-04T05:55:20.460Z,4.43
2023-04-04T05:57:50.820Z,4.63
2023-04-04T06:00:18.418Z,5.47
2023-04-04T06:02:45.304Z,10.65
2023-04-04T06:05:11.876Z,5.95
2023-04-04T06:07:38.333Z,5.30
2023-04-04T06:10:06.141Z,5.68
2023-04-04T06:12:32.553Z,5.30
2023-04-04T06:14:58.963Z,5.35
2023-04-04T06:17:25.527Z,4.25
2023-04-04T06:19:52.857Z,5.50
2023-04-04T06:22:19.244Z,4.40
2023-04-04T06:24:45.657Z,4.80
2023-04-04T06:27:12.051Z,4.10
2023-04-04T06:29:38.423Z,5.22
2023-04-04T06:32:05.375Z,4.53
2023-04-04T06:34:31.929Z,5.75
2023-04-04T06:36:58.335Z,4.63
2023-04-04T06:39:24.779Z,7.18
2023-04-04T06:41:51.259Z,3.63
2023-04-04T06:44:17.691Z,4.55
2023-04-04T06:46:44.735Z,5.15
2023-04-04T06:49:11.577Z,4.28
2023-04-04T06:51:39.938Z,3.95
2023-04-04T06:54:06.427Z,3.95
2023-04-04T06:56:32.904Z,3.95
2023-04-04T06:58:59.397Z,4.25
2023-04-04T07:01:26.258Z,4.60
2023-04-04T07:03:54.131Z,3.40
2023-04-04T07:06:25.780Z,3.90
2023-04-04T07:08:52.937Z,3.53
2023-04-04T07:11:19.493Z,4.45
2023-04-04T07:13:45.945Z,3.90
2023-04-04T07:16:12.360Z,3.28
2023-04-04T07:18:38.774Z,4.65
2023-04-04T07:21:05.405Z,3.38
2023-04-04T07:23:31.904Z,4.40
2023-04-04T07:25:59.490Z,4.50
2023-04-04T07:28:26.131Z,3.65
2023-04-04T07:30:52.582Z,4.32
2023-04-04T07:33:18.991Z,3.30
2023-04-04T07:35:45.456Z,3.97
2023-04-04T07:38:11.834Z,3.83
2023-04-04T07:40:38.636Z,3.38
2023-04-04T07:43:05.217Z,3.65
2023-04-04T07:45:31.632Z,3.35
2023-04-04T07:47:58.222Z,4.43
2023-04-04T07:50:24.632Z,3.47
2023-04-04T07:52:55.891Z,4.07
2023-04-04T07:55:25.194Z,5.00
2023-04-04T07:57:52.607Z,3.70
2023-04-04T08:00:21.769Z,3.40
2023-04-04T08:02:55.820Z,2.65
2023-04-04T08:05:22.508Z,2.50
2023-04-04T08:07:48.994Z,3.30
2023-04-04T08:10:17.610Z,2.40
2023-04-04T08:12:47.868Z,2.95
2023-04-04T08:15:14.681Z,2.53
2023-04-04T08:17:43.238Z,2.70
2023-04-04T08:20:10.528Z,2.75
2023-04-04T08:22:37.075Z,1.95
2023-04-04T08:25:03.734Z,3.22
2023-04-04T08:27:30.215Z,2.70
2023-04-04T08:29:57.097Z,2.15
2023-04-04T08:32:23.717Z,3.17
2023-04-04T08:34:51.079Z,2.30
2023-04-04T08:37:18.179Z,3.75
2023-04-04T08:39:45.373Z,3.55
2023-04-04T08:42:16.807Z,3.40
2023-04-04T08:47:13.462Z,3.90
2023-04-04T08:49:43.684Z,1.83
2023-04-04T08:52:12.395Z,3.53
2023-04-04T08:54:40.600Z,4.07
2023-04-04T08:57:10.820Z,2.92
2023-04-04T08:59:37.885Z,2.72
2023-04-04T09:02:17.751Z,3.90
2023-04-04T09:04:54.565Z,2.95
2023-04-04T09:07:31.104Z,3.55
2023-04-04T09:09:58.351Z,3.10
2023-04-04T09:12:26.396Z,2.47
2023-04-04T09:14:55.491Z,3.75
2023-04-04T09:17:21.958Z,2.83
2023-04-04T09:19:48.366Z,2.70
2023-04-04T09:22:16.113Z,3.75
2023-04-04T09:24:43.619Z,3.17
2023-04-04T09:27:15.443Z,3.55
2023-04-04T09:29:42.425Z,3.33
2023-04-04T09:32:10.328Z,3.97
2023-04-04T09:34:37.900Z,2.60
2023-04-04T09:37:05.967Z,4.53
2023-04-04T09:39:34.164Z,2.95
2023-04-04T09:42:01.835Z,2.38
2023-04-04T09:44:33.184Z,4.13
2023-04-04T09:50:01.371Z,2.60
2023-04-04T09:52:33.080Z,2.67
2023-04-04T09:55:01.468Z,2.92
2023-04-04T09:57:34.374Z,2.63
2023-04-04T10:00:07.070Z,2.78
2023-04-04T10:02:33.986Z,5.22
2023-04-04T10:07:32.104Z,4.70
2023-04-04T10:10:02.372Z,3.50
2023-04-04T10:12:30.507Z,3.90
2023-04-04T10:14:59.255Z,2.97
2023-04-04T10:17:39.437Z,3.88
2023-04-04T10:20:13.689Z,3.97
2023-04-04T10:22:42.489Z,2.92
2023-04-04T10:25:10.441Z,3.63
2023-04-04T10:27:38.658Z,4.45
2023-04-04T10:30:05.661Z,4.18
2023-04-04T10:32:51.360Z,3.10
2023-04-04T10:35:22.564Z,3.50
2023-04-04T10:37:58.450Z,3.30
2023-04-04T10:40:29.713Z,3.67
2023-04-04T10:45:25.860Z,3.17
2023-04-04T10:47:53.201Z,3.45
2023-04-04T10:50:20.783Z,3.72
2023-04-04T10:52:48.032Z,4.50
2023-04-04T10:55:15.919Z,3.72
2023-04-04T10:57:45.328Z,3.20
2023-04-04T11:00:14.739Z,3.40
2023-04-04T11:02:55.049Z,3.92
2023-04-04T11:05:27.876Z,5.30
2023-04-04T11:10:36.159Z,3.70
2023-04-04T11:13:13.376Z,4.65
2023-04-04T11:15:58.096Z,3.88
2023-04-04T11:18:42.448Z,4.80
2023-04-04T11:21:27.762Z,4.35
2023-04-04T11:23:54.126Z,3.65
2023-04-04T11:26:27.620Z,4.38
2023-04-04T11:28:58.420Z,3.47
2023-04-04T11:31:30.132Z,4.35
2023-04-04T11:34:04.881Z,4.07
2023-04-04T11:36:41.494Z,5.35
2023-04-04T11:39:30.581Z,4.43
2023-04-04T11:42:03.785Z,3.65
2023-04-04T11:44:32.072Z,3.97
2023-04-04T11:47:09.170Z,3.40
2023-04-04T11:49:43.008Z,3.53
2023-04-04T11:52:11.972Z,3.65
2023-04-04T11:54:39.624Z,3.50
2023-04-04T11:57:07.331Z,3.80
2023-04-04T11:59:34.840Z,5.22
2023-04-04T12:02:03.043Z,4.07
2023-04-04T12:04:30.890Z,3.45
2023-04-04T12:06:57.725Z,4.60
2023-04-04T12:09:26.338Z,4.18
2023-04-04T12:11:54.392Z,4.03
2023-04-04T12:14:22.889Z,3.30
2023-04-04T12:16:54.810Z,3.90
2023-04-04T12:19:23.996Z,3.72
2023-04-04T12:21:52.363Z,4.25
2023-04-04T12:24:19.520Z,3.78
2023-04-04T12:26:49.147Z,3.95
2023-04-04T12:29:17.214Z,3.85
2023-04-04T12:31:45.597Z,3.20
2023-04-04T12:34:19.159Z,3.15
2023-04-04T12:36:49.710Z,3.40
2023-04-04T12:39:16.794Z,3.97
2023-04-04T12:41:55.233Z,3.90
2023-04-04T12:44:37.686Z,4.72
2023-04-04T12:47:06.666Z,4.38
2023-04-04T12:49:42.704Z,3.75
2023-04-04T12:52:20.712Z,4.50
2023-04-04T12:57:36.699Z,3.58
2023-04-04T13:00:06.463Z,4.07
2023-04-04T13:02:35.678Z,3.80
2023-04-04T13:05:03.689Z,3.97
2023-04-04T13:07:35.662Z,3.25
2023-04-04T13:10:04.725Z,4.53
2023-04-04T13:12:59.424Z,4.30
2023-04-04T13:15:52.234Z,3.20
2023-04-04T13:18:21.910Z,3.75
2023-04-04T13:20:49.120Z,4.30
2023-04-04T13:23:16.289Z,4.78
2023-04-04T13:25:43.098Z,3.88
2023-04-04T13:28:12.908Z,3.00
2023-04-04T13:30:43.492Z,3.63
2023-04-04T13:33:10.149Z,3.58
2023-04-04T13:35:37.198Z,3.33
2023-04-04T13:38:03.614Z,3.55
2023-04-04T13:40:30.119Z,3.53
2023-04-04T13:42:56.647Z,5.90
2023-04-04T13:45:24.456Z,3.78
2023-04-04T13:47:50.883Z,3.65
2023-04-04T13:50:18.173Z,3.90
2023-04-04T13:52:44.605Z,3.63
2023-04-04T13:55:11.616Z,4.75
2023-04-04T13:57:37.995Z,3.85
2023-04-04T14:00:05.580Z,3.38
2023-04-04T14:02:32.246Z,3.75
2023-04-04T14:04:58.633Z,4.45
2023-04-04T14:07:25.051Z,5.20
2023-04-04T14:09:51.770Z,4.03
2023-04-04T14:12:18.335Z,3.85
2023-04-04T14:14:44.747Z,3.90
2023-04-04T14:17:11.239Z,3.80
2023-04-04T14:19:38.778Z,3.72
2023-04-04T14:22:05.918Z,4.35
2023-04-04T14:24:32.351Z,3.80
2023-04-04T14:26:58.751Z,3.95
2023-04-04T14:29:25.134Z,4.60
2023-04-04T14:31:51.750Z,4.50
2023-04-04T14:34:18.274Z,4.85
2023-04-04T14:36:44.829Z,3.83
2023-04-04T14:39:11.297Z,4.45
2023-04-04T14:41:37.705Z,4.22
2023-04-04T14:44:04.186Z,4.47
2023-04-04T14:46:31.139Z,4.38
2023-04-04T14:48:58.128Z,4.25
2023-04-04T14:51:24.686Z,4.40
2023-04-04T14:53:52.823Z,3.90
2023-04-04T14:56:21.179Z,3.97
2023-04-04T14:58:50.288Z,4.45
2023-04-04T15:01:17.431Z,3.95
2023-04-04T15:03:43.890Z,4.65
2023-04-04T15:06:10.411Z,4.55
2023-04-04T15:08:37.052Z,3.60
2023-04-04T15:11:03.688Z,3.85
2023-04-04T15:13:30.526Z,4.53
2023-04-04T15:15:57.446Z,4.07
2023-04-04T15:18:24.038Z,4.38
2023-04-04T15:20:50.584Z,4.07
2023-04-04T15:23:17.174Z,4.30
2023-04-04T15:25:43.755Z,3.88
2023-04-04T15:28:10.334Z,3.80
2023-04-04T15:30:36.851Z,5.32
2023-04-04T15:33:03.317Z,4.15
2023-04-04T15:35:29.749Z,4.20
2023-04-04T15:37:56.162Z,4.22
2023-04-04T15:40:22.693Z,4.10
2023-04-04T15:42:49.194Z,3.83
2023-04-04T15:45:16.544Z,3.70
2023-04-04T15:47:43.595Z,3.80
2023-04-04T15:50:11.643Z,5.65
2023-04-04T15:52:38.546Z,4.70
2023-04-04T15:55:10.330Z,5.05
2023-04-04T15:57:36.732Z,4.03
2023-04-04T16:00:03.766Z,4.28
2023-04-04T16:02:31.816Z,4.25
2023-04-04T16:04:58.307Z,3.90
2023-04-04T16:07:24.683Z,4.55
2023-04-04T16:09:51.380Z,4.47
2023-04-04T16:12:17.850Z,4.30
2023-04-04T16:14:44.225Z,4.63
2023-04-04T16:17:10.933Z,4.15
2023-04-04T16:19:37.332Z,4.70
2023-04-04T16:22:05.383Z,3.97
2023-04-04T16:24:32.224Z,4.65
2023-04-04T16:26:58.663Z,4.55
2023-04-04T16:29:25.142Z,5.05
2023-04-04T16:31:53.129Z,4.40
2023-04-04T16:34:19.593Z,4.68
2023-04-04T16:36:46.225Z,4.10
2023-04-04T16:39:13.292Z,4.15
2023-04-04T16:41:40.957Z,4.00
2023-04-04T16:44:07.417Z,3.60
2023-04-04T16:46:33.867Z,5.35
2023-04-04T16:49:00.363Z,4.40
2023-04-04T16:51:27.748Z,3.88
2023-04-04T16:53:54.190Z,4.15
2023-04-04T16:56:20.599Z,4.30
2023-04-04T16:58:47.173Z,4.50
2023-04-04T17:01:15.038Z,3.22
2023-04-04T17:03:41.569Z,4.35
2023-04-04T17:06:08.240Z,4.18
2023-04-04T17:08:34.620Z,4.22
2023-04-04T17:11:01.453Z,4.95
2023-04-04T17:13:27.876Z,5.63
2023-04-04T17:15:54.281Z,5.00
2023-04-04T17:18:20.664Z,4.65
2023-04-04T17:20:48.944Z,5.38
2023-04-04T17:23:15.405Z,4.68
2023-04-04T17:25:41.817Z,4.53
2023-04-04T17:28:08.338Z,4.53
2023-04-04T17:30:34.980Z,4.78
2023-04-04T17:33:01.415Z,4.93
2023-04-04T17:35:27.989Z,4.82
2023-04-04T17:37:54.671Z,5.40
2023-04-04T17:40:21.254Z,4.57
2023-04-04T17:42:47.748Z,3.67
2023-04-04T17:45:14.624Z,3.55
2023-04-04T17:47:41.048Z,4.05
2023-04-04T17:50:07.887Z,4.13
2023-04-04T17:52:34.273Z,4.43
2023-04-04T17:55:00.673Z,5.40
2023-04-04T17:57:27.197Z,4.80
2023-04-04T17:59:53.719Z,4.47
2023-04-04T18:02:20.546Z,5.25
2023-04-04T18:04:47.354Z,7.28
2023-04-04T18:07:14.315Z,4.80
2023-04-04T18:09:41.149Z,4.05
2023-04-04T18:12:07.913Z,4.82
2023-04-04T18:14:34.308Z,5.32
2023-04-04T18:17:00.847Z,4.30
2023-04-04T18:19:27.294Z,3.72
2023-04-04T18:21:54.292Z,4.35
2023-04-04T18:24:21.116Z,4.38
2023-04-04T18:26:47.533Z,5.65
2023-04-04T18:29:14.876Z,4.85
2023-04-04T18:31:41.394Z,5.88
2023-04-04T18:34:46.164Z,6.15
2023-04-04T18:37:12.703Z,6.22
2023-04-04T18:39:39.078Z,5.10
2023-04-04T18:42:05.539Z,4.85
2023-04-04T18:44:32.907Z,4.72
2023-04-04T18:47:04.003Z,5.35
2023-04-04T18:49:31.207Z,5.15
2023-04-04T18:51:58.142Z,5.50
2023-04-04T18:54:26.036Z,4.65
2023-04-04T18:56:53.921Z,4.45
2023-04-04T18:59:22.456Z,4.10
2023-04-04T19:01:48.998Z,5.30
2023-04-04T19:04:19.685Z,4.72
2023-04-04T19:06:48.729Z,5.75
2023-04-04T19:09:15.384Z,6.43
2023-04-04T19:11:42.964Z,5.15
2023-04-04T19:14:09.551Z,5.97
2023-04-04T19:16:36.084Z,5.53
2023-04-04T19:19:02.519Z,6.40
2023-04-04T19:21:28.982Z,5.78
2023-04-04T19:23:55.423Z,3.88
2023-04-04T19:26:21.831Z,5.30
2023-04-04T19:28:48.317Z,4.35
2023-04-04T19:31:22.323Z,4.45
2023-04-04T19:33:54.938Z,5.38
2023-04-04T19:36:21.997Z,4.43
2023-04-04T19:38:49.264Z,4.00
2023-04-04T19:41:18.686Z,5.07
2023-04-04T19:43:46.961Z,4.40
2023-04-04T19:46:28.959Z,4.97
2023-04-04T19:49:00.116Z,3.63
2023-04-04T19:51:27.438Z,4.75
2023-04-04T19:53:55.563Z,4.60
2023-04-04T19:56:24.548Z,4.03
2023-04-04T19:58:54.544Z,4.22
2023-04-04T20:01:23.124Z,4.78
2023-04-04T20:03:49.767Z,3.55
2023-04-04T20:06:22.223Z,4.65
2023-04-04T20:08:51.732Z,6.07
2023-04-04T20:11:21.639Z,4.55
2023-04-04T20:13:49.960Z,5.10
2023-04-04T20:16:17.298Z,6.30
2023-04-04T20:18:46.081Z,4.57
2023-04-04T20:21:24.182Z,4.25
2023-04-04T20:23:53.222Z,5.18
2023-04-04T20:26:38.149Z,4.55
2023-04-04T20:29:13.627Z,5.63
2023-04-04T20:31:44.415Z,6.40
2023-04-04T20:34:52.930Z,5.43
2023-04-04T20:37:24.901Z,5.20
2023-04-04T20:39:54.105Z,5.53
2023-04-04T20:42:29.820Z,5.88
2023-04-04T20:45:00.930Z,5.30
2023-04-04T20:47:51.576Z,4.85
2023-04-04T20:50:18.416Z,6.37
2023-04-04T20:53:03.007Z,5.05
2023-04-04T20:55:31.556Z,5.35
2023-04-04T20:58:27.399Z,4.97
2023-04-04T21:00:55.152Z,5.28
2023-04-04T21:03:32.575Z,5.53
2023-04-04T21:06:10.654Z,4.93
2023-04-04T21:08:38.322Z,4.60
2023-04-04T21:11:06.678Z,5.38
2023-04-04T21:13:38.626Z,6.22
2023-04-04T21:16:13.582Z,4.68
2023-04-04T21:18:41.434Z,4.43
2023-04-04T21:21:19.522Z,6.47
2023-04-04T21:23:47.203Z,4.07
2023-04-04T21:26:34.572Z,5.38
2023-04-04T21:29:08.525Z,5.20
2023-04-04T21:31:37.817Z,5.30
2023-04-04T21:34:25.480Z,3.80
2023-04-04T21:37:00.554Z,5.43
2023-04-04T21:39:30.615Z,5.07
2023-04-04T21:42:03.719Z,4.88
2023-04-04T21:44:31.928Z,5.15
2023-04-04T21:46:58.389Z,4.25
2023-04-04T21:49:25.339Z,5.10
2023-04-04T21:51:52.173Z,4.78
2023-04-04T21:54:19.129Z,5.45
2023-04-04T21:56:46.332Z,5.07
2023-04-04T21:59:12.862Z,4.85
2023-04-04T22:01:40.569Z,4.43
2023-04-04T22:04:07.215Z,5.68
2023-04-04T22:06:33.723Z,5.30
2023-04-04T22:09:01.810Z,5.70
2023-04-04T22:11:28.646Z,5.78
2023-04-04T22:14:17.666Z,5.15
2023-04-04T22:16:44.663Z,6.53
2023-04-04T22:19:11.786Z,6.55
2023-04-04T22:21:38.484Z,5.38
2023-04-04T22:24:05.480Z,5.88
2023-04-04T22:26:33.112Z,6.35
2023-04-04T22:29:04.033Z,6.38
2023-04-04T22:31:31.213Z,6.53
2023-04-04T22:33:57.800Z,5.00
2023-04-04T22:36:24.957Z,6.18
2023-04-04T22:38:56.265Z,7.25
2023-04-04T22:41:26.373Z,5.40
2023-04-04T22:43:52.789Z,5.63
2023-04-04T22:46:19.928Z,6.22
2023-04-04T22:48:46.775Z,6.32
2023-04-04T22:51:15.117Z,5.07
2023-04-04T22:53:43.932Z,6.10
2023-04-04T22:56:10.737Z,6.07
2023-04-04T22:58:37.238Z,5.43
2023-04-04T23:01:03.666Z,5.60
2023-04-04T23:03:31.055Z,6.40
2023-04-04T23:05:57.492Z,6.10
2023-04-04T23:08:23.859Z,5.53
2023-04-04T23:10:50.245Z,5.53
2023-04-04T23:13:16.860Z,6.43
2023-04-04T23:15:44.982Z,5.82
2023-04-04T23:18:12.378Z,5.63
2023-04-04T23:20:39.453Z,6.18
2023-04-04T23:23:06.207Z,5.53
2023-04-04T23:25:32.586Z,6.57
2023-04-04T23:27:59.027Z,6.18
2023-04-04T23:30:25.580Z,5.85
2023-04-04T23:32:52.024Z,5.85
2023-04-04T23:35:18.522Z,5.53
2023-04-04T23:37:45.720Z,5.80
2023-04-04T23:40:12.216Z,6.45
2023-04-04T23:42:38.704Z,5.10
2023-04-04T23:45:05.560Z,6.00
2023-04-04T23:47:32.196Z,5.88
2023-04-04T23:49:58.774Z,5.55
2023-04-04T23:52:25.346Z,6.13
2023-04-04T23:54:51.709Z,6.18
2023-04-04T23:57:18.077Z,5.88
2023-04-04T23:59:44.500Z,5.72
